createdAt,value
2018-09-29T00:00:36.207Z,1017.15
2018-09-29T00:01:36.184Z,1017.11
2018-09-29T00:02:36.160Z,1017.10
2018-09-29T00:03:36.132Z,1017.10
2018-09-29T00:04:36.101Z,1017.09
2018-09-29T00:05:36.075Z,1017.12
2018-09-29T00:06:36.042Z,1017.13
2018-09-29T00:07:36.025Z,1017.13
2018-09-29T00:08:35.998Z,1017.11
2018-09-29T00:09:35.969Z,1017.09
2018-09-29T00:10:35.942Z,1017.04
2018-09-29T00:11:35.913Z,1017.06
2018-09-29T00:12:35.881Z,1017.06
2018-09-29T00:13:35.861Z,1017.05
2018-09-29T00:14:35.835Z,1017.11
2018-09-29T00:15:35.801Z,1017.14
2018-09-29T00:16:35.830Z,1017.13
2018-09-29T00:17:35.756Z,1017.11
2018-09-29T00:18:35.719Z,1017.15
2018-09-29T00:19:35.698Z,1017.13
2018-09-29T00:20:35.674Z,1017.13
2018-09-29T00:21:35.636Z,1017.15
2018-09-29T00:22:35.625Z,1017.17
2018-09-29T00:23:35.584Z,1017.13
2018-09-29T00:24:35.558Z,1017.12
2018-09-29T00:25:35.541Z,1017.08
2018-09-29T00:26:35.503Z,1017.11
2018-09-29T00:27:35.483Z,1017.09
2018-09-29T00:28:35.460Z,1017.14
2018-09-29T00:29:35.432Z,1017.14
2018-09-29T00:30:35.407Z,1017.13
2018-09-29T00:31:35.375Z,1017.15
2018-09-29T00:32:35.341Z,1017.12
2018-09-29T00:33:35.321Z,1017.13
2018-09-29T00:34:35.294Z,1017.09
2018-09-29T00:35:35.265Z,1017.12
2018-09-29T00:36:35.237Z,1017.17
2018-09-29T00:37:35.211Z,1017.16
2018-09-29T00:38:35.193Z,1017.20
2018-09-29T00:39:35.152Z,1017.20
2018-09-29T00:40:35.131Z,1017.18
2018-09-29T00:41:35.103Z,1017.14
2018-09-29T00:42:35.074Z,1017.15
2018-09-29T00:43:35.051Z,1017.14
2018-09-29T00:44:35.025Z,1017.12
2018-09-29T00:45:34.994Z,1017.12
2018-09-29T00:46:34.966Z,1017.14
2018-09-29T00:47:34.936Z,1017.15
2018-09-29T00:48:34.912Z,1017.13
2018-09-29T00:49:34.894Z,1017.10
2018-09-29T00:50:34.860Z,1017.09
2018-09-29T00:51:34.834Z,1017.06
2018-09-29T00:52:34.811Z,1017.08
2018-09-29T00:53:34.773Z,1017.05
2018-09-29T00:54:34.753Z,1017.03
2018-09-29T00:55:34.716Z,1017.08
2018-09-29T00:56:34.697Z,1017.04
2018-09-29T00:57:34.668Z,1017.05
2018-09-29T00:58:34.640Z,1017.02
2018-09-29T00:59:34.621Z,1016.99
2018-09-29T01:00:34.592Z,1017.00
2018-09-29T01:01:34.561Z,1017.02
2018-09-29T01:02:34.538Z,1017.02
2018-09-29T01:03:34.501Z,1016.98
2018-09-29T01:04:34.479Z,1016.98
2018-09-29T01:05:34.452Z,1016.99
2018-09-29T01:06:34.431Z,1016.97
2018-09-29T01:07:34.398Z,1016.92
2018-09-29T01:08:34.371Z,1016.95
2018-09-29T01:09:34.339Z,1016.96
2018-09-29T01:10:34.324Z,1016.94
2018-09-29T01:11:34.283Z,1016.94
2018-09-29T01:12:34.264Z,1016.97
2018-09-29T01:13:34.234Z,1016.96
2018-09-29T01:14:34.215Z,1016.96
2018-09-29T01:15:34.181Z,1016.96
2018-09-29T01:16:34.151Z,1016.98
2018-09-29T01:17:34.128Z,1016.95
2018-09-29T01:18:34.099Z,1016.93
2018-09-29T01:19:34.073Z,1016.90
2018-09-29T01:20:34.045Z,1016.85
2018-09-29T01:21:34.019Z,1016.88
2018-09-29T01:22:33.989Z,1016.88
2018-09-29T01:23:33.958Z,1016.87
2018-09-29T01:24:33.937Z,1016.85
2018-09-29T01:25:33.914Z,1016.88
2018-09-29T01:26:33.883Z,1016.89
2018-09-29T01:27:33.858Z,1016.91
2018-09-29T01:28:33.832Z,1016.96
2018-09-29T01:29:33.802Z,1016.98
2018-09-29T01:30:33.771Z,1016.91
2018-09-29T01:31:33.748Z,1016.93
2018-09-29T01:32:33.717Z,1016.92
2018-09-29T01:33:33.700Z,1016.88
2018-09-29T01:34:33.665Z,1016.85
2018-09-29T01:35:33.648Z,1016.89
2018-09-29T01:36:33.616Z,1016.84
2018-09-29T01:37:33.592Z,1016.79
2018-09-29T01:38:33.560Z,1016.81
2018-09-29T01:39:33.532Z,1016.80
2018-09-29T01:40:33.509Z,1016.79
2018-09-29T01:41:33.481Z,1016.79
2018-09-29T01:42:33.452Z,1016.80
2018-09-29T01:43:33.415Z,1016.79
2018-09-29T01:44:33.394Z,1016.78
2018-09-29T01:45:33.364Z,1016.75
2018-09-29T01:46:33.336Z,1016.75
2018-09-29T01:47:33.322Z,1016.71
2018-09-29T01:48:33.284Z,1016.75
2018-09-29T01:49:33.259Z,1016.76
2018-09-29T01:50:33.239Z,1016.79
2018-09-29T01:51:33.199Z,1016.83
2018-09-29T01:52:33.194Z,1016.84
2018-09-29T01:53:33.152Z,1016.82
2018-09-29T01:54:33.125Z,1016.83
2018-09-29T01:55:33.091Z,1016.85
2018-09-29T01:56:33.076Z,1016.86
2018-09-29T01:57:33.107Z,1016.90
2018-09-29T01:58:33.007Z,1016.87
2018-09-29T01:59:32.990Z,1016.91
2018-09-29T02:00:32.957Z,1016.87
2018-09-29T02:01:32.933Z,1016.86
2018-09-29T02:02:32.911Z,1016.91
2018-09-29T02:03:32.871Z,1016.88
2018-09-29T02:04:32.856Z,1016.90
2018-09-29T02:05:32.823Z,1016.86
2018-09-29T02:06:32.794Z,1016.84
2018-09-29T02:07:32.774Z,1016.85
2018-09-29T02:08:32.740Z,1016.80
2018-09-29T02:09:32.720Z,1016.80
2018-09-29T02:10:32.695Z,1016.76
2018-09-29T02:11:32.665Z,1016.80
2018-09-29T02:12:32.633Z,1016.76
2018-09-29T02:13:32.602Z,1016.77
2018-09-29T02:14:32.584Z,1016.80
2018-09-29T02:15:32.545Z,1016.78
2018-09-29T02:16:32.526Z,1016.77
2018-09-29T02:17:32.501Z,1016.79
2018-09-29T02:18:32.468Z,1016.82
2018-09-29T02:19:32.452Z,1016.83
2018-09-29T02:20:32.418Z,1016.79
2018-09-29T02:21:32.387Z,1016.75
2018-09-29T02:22:32.367Z,1016.79
2018-09-29T02:23:32.329Z,1016.76
2018-09-29T02:24:32.318Z,1016.76
2018-09-29T02:25:32.280Z,1016.81
2018-09-29T02:26:32.250Z,1016.80
2018-09-29T02:27:32.222Z,1016.79
2018-09-29T02:28:32.261Z,1016.81
2018-09-29T02:29:32.177Z,1016.82
2018-09-29T02:30:32.139Z,1016.79
2018-09-29T02:31:32.120Z,1016.83
2018-09-29T02:32:32.089Z,1016.82
2018-09-29T02:33:32.069Z,1016.82
2018-09-29T02:34:32.037Z,1016.85
2018-09-29T02:35:32.007Z,1016.82
2018-09-29T02:36:31.983Z,1016.83
2018-09-29T02:37:31.953Z,1016.79
2018-09-29T02:38:31.928Z,1016.82
2018-09-29T02:39:31.896Z,1016.76
2018-09-29T02:40:31.876Z,1016.72
2018-09-29T02:41:31.861Z,1016.74
2018-09-29T02:42:31.826Z,1016.70
2018-09-29T02:43:31.785Z,1016.69
2018-09-29T02:44:31.765Z,1016.67
2018-09-29T02:45:31.739Z,1016.70
2018-09-29T02:46:31.703Z,1016.68
2018-09-29T02:47:31.683Z,1016.66
2018-09-29T02:48:31.651Z,1016.76
2018-09-29T02:49:31.633Z,1016.71
2018-09-29T02:50:31.599Z,1016.77
2018-09-29T02:51:31.572Z,1016.78
2018-09-29T02:52:31.553Z,1016.81
2018-09-29T02:53:31.512Z,1016.80
2018-09-29T02:54:31.488Z,1016.77
2018-09-29T02:55:31.462Z,1016.76
2018-09-29T02:56:31.439Z,1016.77
2018-09-29T02:57:31.411Z,1016.76
2018-09-29T02:58:31.386Z,1016.74
2018-09-29T02:59:31.350Z,1016.76
2018-09-29T03:00:31.328Z,1016.75
2018-09-29T03:01:31.303Z,1016.74
2018-09-29T03:02:31.271Z,1016.77
2018-09-29T03:03:31.241Z,1016.76
2018-09-29T03:04:31.213Z,1016.79
2018-09-29T03:05:31.196Z,1016.79
2018-09-29T03:06:31.159Z,1016.77
2018-09-29T03:07:31.138Z,1016.81
2018-09-29T03:08:31.112Z,1016.79
2018-09-29T03:09:31.077Z,1016.80
2018-09-29T03:10:31.051Z,1016.82
2018-09-29T03:11:31.027Z,1016.82
2018-09-29T03:12:30.993Z,1016.83
2018-09-29T03:13:30.972Z,1016.85
2018-09-29T03:14:30.943Z,1016.82
2018-09-29T03:15:30.918Z,1016.80
2018-09-29T03:16:30.892Z,1016.75
2018-09-29T03:17:30.861Z,1016.78
2018-09-29T03:18:30.836Z,1016.79
2018-09-29T03:19:30.800Z,1016.80
2018-09-29T03:20:30.773Z,1016.74
2018-09-29T03:21:30.762Z,1016.74
2018-09-29T03:22:30.719Z,1016.74
2018-09-29T03:23:30.699Z,1016.75
2018-09-29T03:24:30.671Z,1016.78
2018-09-29T03:25:30.637Z,1016.76
2018-09-29T03:26:30.617Z,1016.75
2018-09-29T03:27:30.584Z,1016.77
2018-09-29T03:28:30.559Z,1016.78
2018-09-29T03:29:30.533Z,1016.78
2018-09-29T03:30:30.504Z,1016.80
2018-09-29T03:31:30.525Z,1016.76
2018-09-29T03:32:30.452Z,1016.78
2018-09-29T03:33:30.422Z,1016.77
2018-09-29T03:34:30.397Z,1016.73
2018-09-29T03:35:30.368Z,1016.71
2018-09-29T03:36:30.337Z,1016.69
2018-09-29T03:37:30.313Z,1016.65
2018-09-29T03:38:30.291Z,1016.61
2018-09-29T03:39:30.258Z,1016.63
2018-09-29T03:40:30.231Z,1016.59
2018-09-29T03:41:30.203Z,1016.61
2018-09-29T03:42:30.174Z,1016.63
2018-09-29T03:43:30.152Z,1016.64
2018-09-29T03:44:30.118Z,1016.65
2018-09-29T03:45:30.097Z,1016.65
2018-09-29T03:46:30.060Z,1016.65
2018-09-29T03:47:30.038Z,1016.64
2018-09-29T03:48:30.012Z,1016.60
2018-09-29T03:49:29.978Z,1016.58
2018-09-29T03:50:29.955Z,1016.58
2018-09-29T03:51:29.931Z,1016.57
2018-09-29T03:52:29.901Z,1016.60
2018-09-29T03:53:29.946Z,1016.56
2018-09-29T03:54:29.843Z,1016.57
2018-09-29T03:55:29.825Z,1016.55
2018-09-29T03:56:29.795Z,1016.54
2018-09-29T03:57:29.760Z,1016.52
2018-09-29T03:58:29.741Z,1016.53
2018-09-29T03:59:29.705Z,1016.52
2018-09-29T04:00:29.679Z,1016.55
2018-09-29T04:01:29.657Z,1016.55
2018-09-29T04:02:29.634Z,1016.49
2018-09-29T04:03:29.595Z,1016.55
2018-09-29T04:04:29.568Z,1016.54
2018-09-29T04:05:29.543Z,1016.53
2018-09-29T04:06:29.518Z,1016.57
2018-09-29T04:07:29.497Z,1016.57
2018-09-29T04:08:29.477Z,1016.60
2018-09-29T04:09:29.433Z,1016.58
2018-09-29T04:10:29.410Z,1016.59
2018-09-29T04:11:29.386Z,1016.58
2018-09-29T04:12:29.347Z,1016.59
2018-09-29T04:13:29.328Z,1016.57
2018-09-29T04:14:29.302Z,1016.56
2018-09-29T04:15:29.267Z,1016.61
2018-09-29T04:16:29.237Z,1016.63
2018-09-29T04:17:29.220Z,1016.58
2018-09-29T04:18:29.182Z,1016.63
2018-09-29T04:19:29.165Z,1016.66
2018-09-29T04:20:29.137Z,1016.66
2018-09-29T04:21:29.099Z,1016.68
2018-09-29T04:22:29.084Z,1016.71
2018-09-29T04:23:29.046Z,1016.72
2018-09-29T04:24:29.023Z,1016.75
2018-09-29T04:25:28.993Z,1016.73
2018-09-29T04:26:28.971Z,1016.70
2018-09-29T04:27:28.937Z,1016.71
2018-09-29T04:28:28.911Z,1016.73
2018-09-29T04:29:28.887Z,1016.73
2018-09-29T04:30:28.857Z,1016.78
2018-09-29T04:31:28.832Z,1016.76
2018-09-29T04:32:28.801Z,1016.76
2018-09-29T04:33:28.778Z,1016.68
2018-09-29T04:34:28.747Z,1016.70
2018-09-29T04:35:28.722Z,1016.68
2018-09-29T04:36:28.692Z,1016.70
2018-09-29T04:37:28.662Z,1016.69
2018-09-29T04:38:28.638Z,1016.68
2018-09-29T04:39:28.606Z,1016.70
2018-09-29T04:40:28.580Z,1016.73
2018-09-29T04:41:28.556Z,1016.72
2018-09-29T04:42:28.528Z,1016.71
2018-09-29T04:43:28.501Z,1016.73
2018-09-29T04:44:28.477Z,1016.75
2018-09-29T04:45:28.443Z,1016.74
2018-09-29T04:46:28.420Z,1016.77
2018-09-29T04:47:28.388Z,1016.76
2018-09-29T04:48:28.357Z,1016.79
2018-09-29T04:49:28.341Z,1016.78
2018-09-29T04:50:28.302Z,1016.83
2018-09-29T04:51:28.285Z,1016.85
2018-09-29T04:52:28.255Z,1016.85
2018-09-29T04:53:28.226Z,1016.86
2018-09-29T04:54:28.205Z,1016.89
2018-09-29T04:55:28.174Z,1016.86
2018-09-29T04:56:28.141Z,1016.89
2018-09-29T04:57:28.113Z,1016.91
2018-09-29T04:58:28.089Z,1016.93
2018-09-29T04:59:28.056Z,1016.92
2018-09-29T05:00:28.028Z,1016.91
2018-09-29T05:01:28.007Z,1016.99
2018-09-29T05:02:27.974Z,1016.97
2018-09-29T05:03:27.948Z,1017.01
2018-09-29T05:04:27.924Z,1016.97
2018-09-29T05:05:27.902Z,1017.03
2018-09-29T05:06:27.877Z,1017.03
2018-09-29T05:07:27.839Z,1017.03
2018-09-29T05:08:27.807Z,1017.00
2018-09-29T05:09:27.787Z,1017.00
2018-09-29T05:10:29.685Z,1017.00
2018-09-29T05:11:27.727Z,1017.02
2018-09-29T05:12:27.698Z,1016.99
2018-09-29T05:13:27.680Z,1017.00
2018-09-29T05:14:27.649Z,1017.02
2018-09-29T05:15:27.620Z,1016.97
2018-09-29T05:16:27.593Z,1017.00
2018-09-29T05:17:27.558Z,1016.96
2018-09-29T05:18:27.539Z,1016.98
2018-09-29T05:19:27.503Z,1016.99
2018-09-29T05:20:27.485Z,1017.00
2018-09-29T05:21:27.452Z,1016.99
2018-09-29T05:22:27.432Z,1016.98
2018-09-29T05:23:27.401Z,1016.96
2018-09-29T05:24:27.372Z,1016.94
2018-09-29T05:25:27.347Z,1016.96
2018-09-29T05:26:27.320Z,1016.95
2018-09-29T05:27:27.288Z,1016.96
2018-09-29T05:28:27.258Z,1016.97
2018-09-29T05:29:27.232Z,1016.97
2018-09-29T05:30:27.206Z,1016.99
2018-09-29T05:31:27.175Z,1016.96
2018-09-29T05:32:27.151Z,1016.99
2018-09-29T05:33:27.119Z,1016.98
2018-09-29T05:34:27.094Z,1016.99
2018-09-29T05:35:27.075Z,1017.03
2018-09-29T05:36:27.039Z,1016.99
2018-09-29T05:37:27.009Z,1017.03
2018-09-29T05:38:27.060Z,1017.00
2018-09-29T05:39:26.958Z,1017.02
2018-09-29T05:40:26.935Z,1017.03
2018-09-29T05:41:26.912Z,1017.04
2018-09-29T05:42:26.876Z,1017.03
2018-09-29T05:43:26.842Z,1017.05
2018-09-29T05:44:26.813Z,1017.03
2018-09-29T05:45:26.797Z,1017.05
2018-09-29T05:46:26.773Z,1017.06
2018-09-29T05:47:26.731Z,1017.07
2018-09-29T05:48:26.712Z,1017.06
2018-09-29T05:49:26.678Z,1017.06
2018-09-29T05:50:26.649Z,1017.07
2018-09-29T05:51:26.632Z,1017.09
2018-09-29T05:52:26.596Z,1017.06
2018-09-29T05:53:26.572Z,1017.07
2018-09-29T05:54:26.548Z,1017.02
2018-09-29T05:55:26.506Z,1017.02
2018-09-29T05:56:26.481Z,1017.01
2018-09-29T05:57:26.456Z,1017.03
2018-09-29T05:58:26.431Z,1017.01
2018-09-29T05:59:26.402Z,1016.99
2018-09-29T06:00:26.426Z,1016.98
2018-09-29T06:01:26.348Z,1017.03
2018-09-29T06:02:26.318Z,1017.04
2018-09-29T06:03:26.292Z,1017.07
2018-09-29T06:04:26.266Z,1017.02
2018-09-29T06:05:26.288Z,1017.04
2018-09-29T06:06:26.210Z,1017.02
2018-09-29T06:07:26.277Z,1017.02
2018-09-29T06:08:26.155Z,1016.97
2018-09-29T06:09:26.125Z,1017.00
2018-09-29T06:10:26.107Z,1017.02
2018-09-29T06:11:26.075Z,1017.01
2018-09-29T06:12:26.046Z,1017.04
2018-09-29T06:13:26.016Z,1017.06
2018-09-29T06:14:25.997Z,1017.04
2018-09-29T06:15:25.964Z,1017.04
2018-09-29T06:16:25.938Z,1017.07
2018-09-29T06:17:25.903Z,1017.10
2018-09-29T06:18:25.875Z,1017.12
2018-09-29T06:20:57.485Z,1017.14
2018-09-29T06:21:57.384Z,1017.12
2018-09-29T06:23:50.268Z,1017.15
2018-09-29T06:24:50.186Z,1017.17
2018-09-29T06:26:43.058Z,1017.19
2018-09-29T06:27:43.005Z,1017.18
2018-09-29T06:29:35.840Z,1017.20
2018-09-29T06:30:35.807Z,1017.20
2018-09-29T06:32:28.659Z,1017.19
2018-09-29T06:33:28.604Z,1017.17
2018-09-29T06:35:21.452Z,1017.14
2018-09-29T06:36:21.413Z,1017.20
2018-09-29T06:38:14.274Z,1017.21
2018-09-29T06:39:14.216Z,1017.22
2018-09-29T06:41:07.079Z,1017.26
2018-09-29T06:42:07.026Z,1017.28
2018-09-29T06:43:59.862Z,1017.30
2018-09-29T06:44:59.838Z,1017.30
2018-09-29T06:46:52.694Z,1017.25
2018-09-29T06:47:52.769Z,1017.18
2018-09-29T06:49:45.484Z,1017.22
2018-09-29T06:50:45.455Z,1017.18
2018-09-29T06:52:38.311Z,1017.19
2018-09-29T06:53:38.260Z,1017.20
2018-09-29T06:55:31.109Z,1017.25
2018-09-29T06:56:31.070Z,1017.20
2018-09-29T06:58:23.936Z,1017.18
2018-09-29T06:59:23.865Z,1017.20
2018-09-29T07:01:16.709Z,1017.17
2018-09-29T07:02:16.670Z,1017.16
2018-09-29T07:04:09.534Z,1017.20
2018-09-29T07:05:09.476Z,1017.20
2018-09-29T07:07:02.342Z,1017.20
2018-09-29T07:08:02.280Z,1017.15
2018-09-29T07:09:55.123Z,1017.12
2018-09-29T07:10:55.085Z,1017.10
2018-09-29T07:12:47.965Z,1017.10
2018-09-29T07:13:47.881Z,1017.16
2018-09-29T07:15:40.719Z,1017.12
2018-09-29T07:16:40.685Z,1017.09
2018-09-29T07:18:33.543Z,1017.14
2018-09-29T07:19:33.491Z,1017.13
2018-09-29T07:21:26.374Z,1017.20
2018-09-29T07:22:26.313Z,1017.18
2018-09-29T07:24:19.169Z,1017.16
2018-09-29T07:25:19.134Z,1017.08
2018-09-29T07:27:11.967Z,1017.12
2018-09-29T07:28:11.924Z,1017.10
2018-09-29T07:30:04.879Z,1017.09
2018-09-29T07:31:04.822Z,1017.14
2018-09-29T07:32:57.655Z,1017.12
2018-09-29T07:33:57.638Z,1017.18
2018-09-29T07:35:50.478Z,1017.20
2018-09-29T07:36:50.435Z,1017.23
2018-09-29T07:38:43.259Z,1017.24
2018-09-29T07:39:43.234Z,1017.24
2018-09-29T07:41:36.098Z,1017.24
2018-09-29T07:42:36.042Z,1017.18
2018-09-29T07:44:28.878Z,1017.26
2018-09-29T07:45:28.850Z,1017.26
2018-09-29T07:47:21.712Z,1017.25
2018-09-29T07:48:21.659Z,1017.24
2018-09-29T07:50:14.520Z,1017.26
2018-09-29T07:51:14.466Z,1017.26
2018-09-29T07:53:07.321Z,1017.25
2018-09-29T07:54:07.269Z,1017.19
2018-09-29T07:56:00.275Z,1017.18
2018-09-29T07:57:00.115Z,1017.18
2018-09-29T07:58:52.948Z,1017.20
2018-09-29T07:59:52.907Z,1017.20
2018-09-29T08:01:45.738Z,1017.20
2018-09-29T08:02:45.714Z,1017.20
2018-09-29T08:04:38.567Z,1017.17
2018-09-29T08:05:38.514Z,1017.18
2018-09-29T08:07:31.366Z,1017.17
2018-09-29T08:08:31.323Z,1017.18
2018-09-29T08:10:24.185Z,1017.20
2018-09-29T08:11:24.136Z,1017.23
2018-09-29T08:13:16.997Z,1017.23
2018-09-29T08:14:16.942Z,1017.28
2018-09-29T08:16:09.772Z,1017.20
2018-09-29T08:17:09.746Z,1017.20
2018-09-29T08:19:02.615Z,1017.20
2018-09-29T08:20:02.557Z,1017.22
2018-09-29T08:21:55.410Z,1017.18
2018-09-29T08:22:55.358Z,1017.23
2018-09-29T08:23:55.337Z,1017.21
2018-09-29T08:24:55.306Z,1017.25
2018-09-29T08:25:55.282Z,1017.21
2018-09-29T08:26:55.253Z,1017.20
2018-09-29T08:27:55.220Z,1017.22
2018-09-29T08:28:55.195Z,1017.21
2018-09-29T08:29:55.169Z,1017.22
2018-09-29T08:30:55.139Z,1017.21
2018-09-29T08:31:55.109Z,1017.23
2018-09-29T08:32:55.085Z,1017.24
2018-09-29T08:33:55.062Z,1017.29
2018-09-29T08:34:55.045Z,1017.29
2018-09-29T08:35:55.004Z,1017.27
2018-09-29T08:36:54.983Z,1017.25
2018-09-29T08:37:55.027Z,1017.24
2018-09-29T08:38:54.952Z,1017.27
2018-09-29T08:39:54.905Z,1017.21
2018-09-29T08:40:54.872Z,1017.21
2018-09-29T08:41:54.856Z,1017.23
2018-09-29T08:42:54.821Z,1017.22
2018-09-29T08:43:54.790Z,1017.27
2018-09-29T08:44:54.768Z,1017.24
2018-09-29T08:45:54.735Z,1017.23
2018-09-29T08:46:54.711Z,1017.21
2018-09-29T08:47:54.686Z,1017.18
2018-09-29T08:48:54.651Z,1017.23
2018-09-29T08:49:54.639Z,1017.20
2018-09-29T08:50:54.599Z,1017.20
2018-09-29T08:51:54.577Z,1017.16
2018-09-29T08:52:54.556Z,1017.13
2018-09-29T08:53:54.521Z,1017.12
2018-09-29T08:54:54.496Z,1017.13
2018-09-29T08:55:54.464Z,1017.12
2018-09-29T08:56:54.439Z,1017.14
2018-09-29T08:57:54.410Z,1017.08
2018-09-29T08:58:54.390Z,1017.07
2018-09-29T08:59:54.362Z,1017.07
2018-09-29T09:00:54.337Z,1017.03
2018-09-29T09:01:54.308Z,1017.04
2018-09-29T09:02:54.282Z,1017.06
2018-09-29T09:03:54.275Z,1017.03
2018-09-29T09:04:54.222Z,1017.03
2018-09-29T09:05:54.199Z,1017.01
2018-09-29T09:06:54.170Z,1017.03
2018-09-29T09:07:54.142Z,1017.02
2018-09-29T09:08:54.115Z,1017.03
2018-09-29T09:09:54.093Z,1017.01
2018-09-29T09:10:54.066Z,1017.01
2018-09-29T09:11:54.036Z,1017.03
2018-09-29T09:12:54.012Z,1017.01
2018-09-29T09:13:53.976Z,1017.00
2018-09-29T09:14:53.960Z,1016.97
2018-09-29T09:15:53.928Z,1016.97
2018-09-29T09:16:54.077Z,1016.92
2018-09-29T09:17:53.887Z,1016.97
2018-09-29T09:18:53.866Z,1016.95
2018-09-29T09:19:53.824Z,1016.99
2018-09-29T09:20:53.789Z,1016.97
2018-09-29T09:21:53.769Z,1016.98
2018-09-29T09:22:53.790Z,1016.99
2018-09-29T09:23:53.762Z,1016.95
2018-09-29T09:24:53.685Z,1016.95
2018-09-29T09:25:53.660Z,1016.95
2018-09-29T09:26:53.683Z,1016.93
2018-09-29T09:27:53.635Z,1016.95
2018-09-29T09:28:53.613Z,1016.91
2018-09-29T09:29:53.674Z,1016.90
2018-09-29T09:30:53.525Z,1016.87
2018-09-29T09:31:53.497Z,1016.93
2018-09-29T09:32:53.470Z,1016.91
2018-09-29T09:33:53.445Z,1016.89
2018-09-29T09:34:53.416Z,1016.89
2018-09-29T09:35:53.386Z,1016.85
2018-09-29T09:36:53.371Z,1016.85
2018-09-29T09:37:53.375Z,1016.86
2018-09-29T09:38:53.321Z,1016.85
2018-09-29T09:39:53.287Z,1016.86
2018-09-29T09:40:53.258Z,1016.80
2018-09-29T09:41:53.228Z,1016.81
2018-09-29T09:42:53.208Z,1016.76
2018-09-29T09:43:53.177Z,1016.75
2018-09-29T09:44:53.147Z,1016.74
2018-09-29T09:45:53.121Z,1016.70
2018-09-29T09:46:53.093Z,1016.68
2018-09-29T09:47:53.069Z,1016.74
2018-09-29T09:48:53.042Z,1016.70
2018-09-29T09:49:53.015Z,1016.69
2018-09-29T09:50:52.992Z,1016.71
2018-09-29T09:51:52.966Z,1016.66
2018-09-29T09:52:52.931Z,1016.65
2018-09-29T09:53:52.912Z,1016.62
2018-09-29T09:54:52.883Z,1016.61
2018-09-29T09:55:52.871Z,1016.59
2018-09-29T09:56:52.828Z,1016.60
2018-09-29T09:57:52.805Z,1016.56
2018-09-29T09:58:52.773Z,1016.50
2018-09-29T09:59:52.749Z,1016.50
2018-09-29T10:00:52.726Z,1016.47
2018-09-29T10:01:52.700Z,1016.48
2018-09-29T10:02:52.669Z,1016.43
2018-09-29T10:03:52.639Z,1016.42
2018-09-29T10:04:52.613Z,1016.43
2018-09-29T10:05:52.591Z,1016.38
2018-09-29T10:06:52.562Z,1016.42
2018-09-29T10:07:52.536Z,1016.42
2018-09-29T10:08:52.508Z,1016.35
2018-09-29T10:09:52.490Z,1016.37
2018-09-29T10:10:52.457Z,1016.34
2018-09-29T10:11:52.433Z,1016.28
2018-09-29T10:12:52.403Z,1016.32
2018-09-29T10:13:52.385Z,1016.30
2018-09-29T10:14:52.352Z,1016.27
2018-09-29T10:15:52.327Z,1016.31
2018-09-29T10:16:52.311Z,1016.24
2018-09-29T10:17:52.271Z,1016.24
2018-09-29T10:18:52.256Z,1016.22
2018-09-29T10:19:52.213Z,1016.20
2018-09-29T10:20:52.185Z,1016.18
2018-09-29T10:21:52.170Z,1016.14
2018-09-29T10:22:52.137Z,1016.11
2018-09-29T10:23:52.155Z,1016.14
2018-09-29T10:24:52.089Z,1016.12
2018-09-29T10:25:52.058Z,1016.14
2018-09-29T10:26:52.036Z,1016.10
2018-09-29T10:27:52.020Z,1016.10
2018-09-29T10:28:51.977Z,1016.05
2018-09-29T10:29:51.953Z,1016.06
2018-09-29T10:30:51.925Z,1016.03
2018-09-29T10:31:51.902Z,1015.98
2018-09-29T10:32:51.868Z,1015.96
2018-09-29T10:33:51.856Z,1015.97
2018-09-29T10:34:51.819Z,1015.93
2018-09-29T10:35:51.796Z,1015.95
2018-09-29T10:36:51.771Z,1015.92
2018-09-29T10:37:51.741Z,1015.95
2018-09-29T10:38:51.721Z,1015.97
2018-09-29T10:39:51.682Z,1015.95
2018-09-29T10:40:51.664Z,1015.96
2018-09-29T10:41:51.629Z,1015.99
2018-09-29T10:42:51.610Z,1015.95
2018-09-29T10:43:51.585Z,1015.92
2018-09-29T10:44:51.549Z,1015.89
2018-09-29T10:45:51.534Z,1015.91
2018-09-29T10:46:51.507Z,1015.88
2018-09-29T10:47:51.476Z,1015.89
2018-09-29T10:48:51.447Z,1015.88
2018-09-29T10:49:51.428Z,1015.93
2018-09-29T10:50:51.400Z,1015.94
2018-09-29T10:51:51.371Z,1015.91
2018-09-29T10:52:51.380Z,1015.87
2018-09-29T10:53:51.320Z,1015.86
2018-09-29T10:54:51.316Z,1015.85
2018-09-29T10:55:51.267Z,1015.84
2018-09-29T10:56:51.241Z,1015.84
2018-09-29T10:57:51.229Z,1015.82
2018-09-29T10:58:51.188Z,1015.80
2018-09-29T10:59:51.156Z,1015.80
2018-09-29T11:00:51.130Z,1015.76
2018-09-29T11:01:51.109Z,1015.75
2018-09-29T11:02:51.078Z,1015.74
2018-09-29T11:03:51.056Z,1015.77
2018-09-29T11:04:51.079Z,1015.75
2018-09-29T11:05:51.014Z,1015.71
2018-09-29T11:06:50.978Z,1015.72
2018-09-29T11:07:50.951Z,1015.72
2018-09-29T11:08:50.920Z,1015.70
2018-09-29T11:09:50.893Z,1015.64
2018-09-29T11:10:50.867Z,1015.68
2018-09-29T11:11:50.842Z,1015.67
2018-09-29T11:12:50.818Z,1015.63
2018-09-29T11:13:50.811Z,1015.58
2018-09-29T11:14:50.768Z,1015.61
2018-09-29T11:15:50.732Z,1015.61
2018-09-29T11:16:50.710Z,1015.59
2018-09-29T11:17:50.682Z,1015.62
2018-09-29T11:18:50.655Z,1015.59
2018-09-29T11:19:50.636Z,1015.57
2018-09-29T11:20:50.664Z,1015.58
2018-09-29T11:21:50.583Z,1015.54
2018-09-29T11:22:50.557Z,1015.53
2018-09-29T11:23:50.529Z,1015.45
2018-09-29T11:24:50.500Z,1015.47
2018-09-29T11:25:50.477Z,1015.45
2018-09-29T11:26:50.448Z,1015.41
2018-09-29T11:27:50.469Z,1015.41
2018-09-29T11:28:50.391Z,1015.39
2018-09-29T11:29:50.374Z,1015.35
2018-09-29T11:30:50.342Z,1015.31
2018-09-29T11:31:50.319Z,1015.34
2018-09-29T11:32:50.293Z,1015.29
2018-09-29T11:33:50.267Z,1015.33
2018-09-29T11:34:50.241Z,1015.31
2018-09-29T11:35:50.210Z,1015.29
2018-09-29T11:36:50.185Z,1015.26
2018-09-29T11:37:50.163Z,1015.26
2018-09-29T11:38:50.128Z,1015.21
2018-09-29T11:39:50.116Z,1015.20
2018-09-29T11:40:50.086Z,1015.19
2018-09-29T11:41:50.053Z,1015.16
2018-09-29T11:42:50.033Z,1015.11
2018-09-29T11:43:49.996Z,1015.12
2018-09-29T11:44:49.995Z,1015.06
2018-09-29T11:45:49.948Z,1015.08
2018-09-29T11:46:49.921Z,1015.09
2018-09-29T11:47:49.897Z,1015.08
2018-09-29T11:48:49.874Z,1015.06
2018-09-29T11:49:49.847Z,1015.02
2018-09-29T11:50:49.818Z,1015.02
2018-09-29T11:51:49.788Z,1014.98
2018-09-29T11:52:49.763Z,1014.97
2018-09-29T11:53:49.747Z,1014.97
2018-09-29T11:54:49.711Z,1014.94
2018-09-29T11:55:49.690Z,1014.95
2018-09-29T11:56:49.658Z,1014.91
2018-09-29T11:57:49.633Z,1014.87
2018-09-29T11:58:49.611Z,1014.84
2018-09-29T11:59:49.582Z,1014.83
2018-09-29T12:00:49.549Z,1014.84
2018-09-29T12:01:49.562Z,1014.81
2018-09-29T12:02:49.502Z,1014.78
2018-09-29T12:03:49.486Z,1014.76
2018-09-29T12:04:49.458Z,1014.71
2018-09-29T12:05:49.463Z,1014.73
2018-09-29T12:06:49.396Z,1014.75
2018-09-29T12:07:49.384Z,1014.73
2018-09-29T12:08:49.344Z,1014.64
2018-09-29T12:09:49.318Z,1014.62
2018-09-29T12:10:49.296Z,1014.66
2018-09-29T12:11:49.267Z,1014.67
2018-09-29T12:12:49.243Z,1014.67
2018-09-29T12:13:49.252Z,1014.63
2018-09-29T12:14:49.192Z,1014.59
2018-09-29T12:15:49.163Z,1014.59
2018-09-29T12:16:49.228Z,1014.59
2018-09-29T12:17:49.111Z,1014.61
2018-09-29T12:18:49.085Z,1014.56
2018-09-29T12:19:49.063Z,1014.57
2018-09-29T12:20:49.033Z,1014.54
2018-09-29T12:21:49.001Z,1014.46
2018-09-29T12:22:48.983Z,1014.50
2018-09-29T12:23:48.949Z,1014.48
2018-09-29T12:24:48.926Z,1014.48
2018-09-29T12:25:48.902Z,1014.43
2018-09-29T12:26:48.878Z,1014.41
2018-09-29T12:27:48.850Z,1014.40
2018-09-29T12:28:48.818Z,1014.33
2018-09-29T12:29:48.799Z,1014.35
2018-09-29T12:30:48.766Z,1014.36
2018-09-29T12:31:48.743Z,1014.35
2018-09-29T12:32:48.713Z,1014.34
2018-09-29T12:33:48.691Z,1014.32
2018-09-29T12:34:48.668Z,1014.29
2018-09-29T12:35:48.634Z,1014.28
2018-09-29T12:36:48.674Z,1014.27
2018-09-29T12:37:48.704Z,1014.27
2018-09-29T12:38:48.560Z,1014.20
2018-09-29T12:39:48.541Z,1014.25
2018-09-29T12:40:48.510Z,1014.22
2018-09-29T12:41:48.479Z,1014.18
2018-09-29T12:42:48.456Z,1014.15
2018-09-29T12:43:48.430Z,1014.14